CheckWX is a tool to help pilots better visualize weather data.  It is not intended as a substitute for an official pre-flight weather briefing.

18:33:16 UTC

EPZG TAF
Zielona Góra-Babimost Airport
Babimost, Poland
TAF EPZG 081730Z 0818/0903 21012KT 9999 BKN030 TEMPO 0818/0822 22015G27KT 4000 SHRA SCT010 BKN020CB TEMPO 0822/0903 4000 SHRA BKN007 BKN014CB

Dec-8@
18:00 UTC

Dec-8 @ 18:00 UTC

Dec-9@
03:00 UTC

Dec-9 @ 03:00 UTC

TAF EPZG 081730Z 0818/0903 21012KT 9999 BKN030
Wind
  • 210° at 12 KTS
Cloud Levels
  • Broken at 3,000' AGL

Dec-8@
18:00 UTC

Dec-8 @ 18:00 UTC

Dec-8@
22:00 UTC

Dec-8 @ 22:00 UTC

TEMPO 0818/0822 22015G27KT 4000 SHRA SCT010 BKN020CB

Temporary

Temporary Changes expected for less than half the time period

Wind
  • 220° at 15 KTS
  • {Gusting to 27 KTS
Conditions
Rain
Cloud Levels
  • Scattered at 1,000' AGL
  • Broken at 2,000' AGL

Dec-8@
22:00 UTC

Dec-8 @ 22:00 UTC

Dec-9@
03:00 UTC

Dec-9 @ 03:00 UTC

TEMPO 0822/0903 4000 SHRA BKN007 BKN014CB

Temporary

Temporary Changes expected for less than half the time period

Conditions
Rain
Cloud Levels
  • Broken at 700' AGL
  • Broken at 1,400' AGL